Time;durP1;ratioP1;P1;durP2;ratioP2;P2;SDS_P1;SDS_P2;PMS_P1;PMS_P2;Temp;Humidity;BMP_temperature;BMP_pressure;BME280_temperature;BME280_humidity;BME280_pressure;Samples;Min_cycle;Max_cycle;Signal;HPM_P1;HPM_P2
2022/06/28 00:01:52;;;;;;;;;3.00;2.00;;;;;19.65;50.46;101521.56;5095922;27;45463;-95
2022/06/28 00:04:19;;;;;;;;;1.00;1.00;;;;;19.73;51.54;101543.88;5095642;27;45536;-96
2022/06/28 00:06:44;;;;;;;;;2.00;2.00;;;;;19.78;51.15;101550.16;5078720;27;45605;-90
2022/06/28 00:09:11;;;;;;;;;1.00;1.00;;;;;19.75;51.10;101538.53;5076890;28;46006;-86
2022/06/28 00:11:37;;;;;;;;;2.25;1.75;;;;;19.93;51.50;101575.19;5059047;28;46091;-88
2022/06/28 00:14:02;;;;;;;;;2.00;2.00;;;;;19.86;51.10;101565.34;5078254;28;46904;-96
2022/06/28 00:16:28;;;;;;;;;3.00;2.00;;;;;19.92;51.20;101578.75;5078207;28;45728;-96
2022/06/28 00:18:53;;;;;;;;;3.00;2.75;;;;;19.66;51.94;101534.03;5082154;27;46513;-96
2022/06/28 00:21:19;;;;;;;;;2.00;2.00;;;;;19.63;52.19;101541.09;5098347;27;45324;-95
2022/06/28 00:23:45;;;;;;;;;2.75;2.00;;;;;19.55;51.97;101530.31;5109757;27;45133;-86
2022/06/28 00:26:11;;;;;;;;;2.25;2.00;;;;;19.39;52.55;101507.94;5099857;27;45066;-93
2022/06/28 00:28:37;;;;;;;;;2.00;2.00;;;;;19.56;52.17;101548.13;5094296;27;47705;-95
2022/06/28 00:31:03;;;;;;;;;2.25;2.25;;;;;19.58;52.97;101563.25;5107743;27;45210;-91
2022/06/28 00:33:28;;;;;;;;;3.50;1.00;;;;;19.34;52.84;101534.53;5108342;27;45193;-95
2022/06/28 00:35:54;;;;;;;;;2.00;2.00;;;;;19.38;53.32;101553.25;5076598;28;45006;-96
2022/06/28 00:38:19;;;;;;;;;1.50;1.50;;;;;19.25;53.29;101538.88;5094214;28;46120;-96
2022/06/28 00:40:48;;;;;;;;;1.00;1.00;;;;;19.16;53.18;101531.69;5094062;28;45038;-96
2022/06/28 00:43:14;;;;;;;;;2.50;2.00;;;;;19.21;53.47;101553.94;5098672;27;45095;-95
2022/06/28 00:45:43;;;;;;;;;2.00;2.00;;;;;19.21;53.46;101569.00;5097798;27;45742;-96
2022/06/28 00:48:13;;;;;;;;;2.50;2.00;;;;;19.15;54.01;101563.63;5094523;27;45698;-96
2022/06/28 00:50:39;;;;;;;;;1.50;1.50;;;;;18.90;54.32;101523.34;5078672;28;45401;-96
2022/06/28 00:53:11;;;;;;;;;2.00;2.00;;;;;18.83;54.29;101526.81;5081742;27;45413;-96
2022/06/28 00:55:37;;;;;;;;;1.00;1.00;;;;;18.96;54.43;101554.50;5098772;27;45644;-96
2022/06/28 00:58:03;;;;;;;;;0.50;0.00;;;;;18.96;54.89;101560.72;5097710;27;45469;-93
2022/06/28 01:00:34;;;;;;;;;1.00;1.00;;;;;18.66;54.93;101509.66;5083885;27;45973;-96
2022/06/28 01:03:00;;;;;;;;;1.25;1.25;;;;;18.64;54.93;101522.97;5091084;27;45443;-90
2022/06/28 01:05:25;;;;;;;;;2.25;2.00;;;;;18.76;55.11;101554.22;5095899;27;45330;-89
2022/06/28 01:07:51;;;;;;;;;3.50;3.00;;;;;18.46;55.10;101512.94;5084547;27;47245;-92
2022/06/28 01:10:16;;;;;;;;;1.00;1.00;;;;;18.57;55.71;101531.75;5119709;27;45313;-93
2022/06/28 01:12:42;;;;;;;;;2.50;1.50;;;;;18.35;55.81;101509.22;5133532;27;45287;-90
2022/06/28 01:15:08;;;;;;;;;1.25;1.25;;;;;18.28;55.86;101507.38;5114295;27;45354;-92
2022/06/28 01:17:33;;;;;;;;;2.00;2.00;;;;;18.39;55.67;101534.13;5113065;27;45086;-80
2022/06/28 01:19:59;;;;;;;;;3.00;2.75;;;;;18.19;56.28;101508.09;5113076;27;45070;-80
2022/06/28 01:22:28;;;;;;;;;3.25;2.00;;;;;18.42;55.92;101550.13;5112219;27;45508;-82
2022/06/28 01:24:53;;;;;;;;;2.00;2.00;;;;;18.26;56.41;101522.38;5120579;27;45108;-90
2022/06/28 01:27:19;;;;;;;;;2.50;2.50;;;;;18.15;56.62;101505.38;5125349;27;45720;-87
2022/06/28 01:29:45;;;;;;;;;2.00;2.00;;;;;18.40;56.38;101554.53;5130489;27;46203;-82
2022/06/28 01:32:12;;;;;;;;;2.25;1.75;;;;;18.35;56.93;101554.47;5130386;27;45218;-89
2022/06/28 01:34:38;;;;;;;;;1.00;1.00;;;;;18.15;56.83;101518.69;5110907;27;45684;-94
2022/06/28 01:37:03;;;;;;;;;1.75;1.75;;;;;18.18;56.98;101518.75;5096611;27;45801;-90
2022/06/28 01:39:28;;;;;;;;;2.00;2.00;;;;;17.96;57.05;101481.13;5114461;27;45538;-80
2022/06/28 01:41:54;;;;;;;;;2.00;2.00;;;;;18.21;56.71;101530.31;5115190;27;45805;-81
2022/06/28 01:44:20;;;;;;;;;1.50;1.00;;;;;18.32;57.00;101549.09;5098925;27;45790;-80
2022/06/28 01:46:45;;;;;;;;;3.50;3.50;;;;;18.19;56.55;101520.53;5095433;27;46125;-93
2022/06/28 01:49:11;;;;;;;;;2.75;2.00;;;;;18.28;56.70;101532.19;5099287;27;45747;-95
2022/06/28 01:51:37;;;;;;;;;1.75;1.75;;;;;18.19;57.01;101512.53;5094215;27;45442;-80
2022/06/28 01:54:02;;;;;;;;;2.75;1.75;;;;;18.17;56.84;101511.59;5094691;27;45586;-88
2022/06/28 01:56:28;;;;;;;;;2.25;2.25;;;;;18.30;57.35;101545.53;5112716;27;46643;-81
2022/06/28 01:58:54;;;;;;;;;2.00;2.00;;;;;18.23;57.12;101533.00;5115069;27;45476;-92
2022/06/28 02:01:20;;;;;;;;;3.25;2.25;;;;;18.10;57.19;101521.25;5113789;27;45661;-91
2022/06/28 02:03:45;;;;;;;;;1.00;1.00;;;;;18.05;57.35;101526.50;5095656;27;46064;-94
2022/06/28 02:06:10;;;;;;;;;1.00;1.00;;;;;17.87;57.90;101507.56;5103284;27;45625;-80
2022/06/28 02:08:36;;;;;;;;;1.75;1.75;;;;;17.89;57.85;101510.28;5093028;27;45397;-85
2022/06/28 02:11:03;;;;;;;;;1.75;1.25;;;;;17.93;58.10;101523.66;5094380;27;45276;-93
2022/06/28 02:13:29;;;;;;;;;2.25;1.75;;;;;17.75;58.31;101491.41;5093962;27;45830;-93
2022/06/28 02:15:54;;;;;;;;;1.75;1.75;;;;;18.03;58.52;101549.53;5108826;27;46370;-86
2022/06/28 02:18:20;;;;;;;;;2.00;2.00;;;;;17.81;58.09;101506.56;5111146;27;45119;-91
2022/06/28 02:20:45;;;;;;;;;2.75;2.25;;;;;17.77;58.10;101508.28;5111235;27;45135;-88
2022/06/28 02:23:11;;;;;;;;;1.00;1.00;;;;;17.84;58.16;101525.25;5110803;27;45066;-88
2022/06/28 02:25:36;;;;;;;;;0.75;0.75;;;;;17.52;58.17;101475.91;5109890;27;45659;-85
2022/06/28 02:28:01;;;;;;;;;1.75;1.75;;;;;17.70;58.71;101509.91;5126109;27;45343;-85
2022/06/28 02:30:27;;;;;;;;;0.75;0.75;;;;;17.57;58.59;101493.72;5097043;27;45619;-89
2022/06/28 02:32:52;;;;;;;;;1.75;0.75;;;;;17.65;58.76;101522.22;5099188;27;45020;-96
2022/06/28 02:40:45;;;;;;;;;3.00;2.75;;;;;17.56;59.05;101513.19;5103193;27;45631;-81
2022/06/28 02:43:11;;;;;;;;;3.00;2.50;;;;;17.61;59.54;101535.44;5101023;27;45769;-87
2022/06/28 02:45:36;;;;;;;;;0.75;0.75;;;;;17.48;59.22;101513.94;5114219;27;45792;-91
2022/06/28 02:48:03;;;;;;;;;2.75;2.75;;;;;17.22;59.67;101472.69;5124859;27;45206;-92
2022/06/28 02:50:29;;;;;;;;;1.00;0.75;;;;;17.62;59.56;101553.16;5119748;27;45430;-95
2022/06/28 02:52:54;;;;;;;;;2.25;1.75;;;;;17.31;60.10;101504.75;5107684;27;45794;-93
2022/06/28 02:55:20;;;;;;;;;1.75;1.00;;;;;17.39;59.69;101524.41;5098555;27;45415;-92
2022/06/28 02:57:48;;;;;;;;;1.00;1.00;;;;;17.41;59.74;101520.00;5107602;27;45549;-95
2022/06/28 03:00:16;;;;;;;;;2.25;2.25;;;;;17.43;59.73;101515.59;5105764;27;45512;-96
2022/06/28 03:02:44;;;;;;;;;3.75;3.50;;;;;17.48;59.39;101523.66;5101569;27;45586;-96
2022/06/28 03:05:12;;;;;;;;;4.50;4.25;;;;;17.40;59.38;101506.69;5078133;27;47426;-94
2022/06/28 03:07:38;;;;;;;;;5.00;5.00;;;;;17.42;59.36;101508.50;5115633;27;45998;-95
2022/06/28 03:10:05;;;;;;;;;5.25;5.25;;;;;17.52;59.07;101525.53;5117776;27;45590;-96
2022/06/28 03:12:30;;;;;;;;;3.75;3.75;;;;;17.42;59.59;101516.47;5092671;27;45483;-96
2022/06/28 03:14:55;;;;;;;;;6.75;6.00;;;;;17.35;59.56;101511.03;5102392;27;45211;-96
2022/06/28 03:17:21;;;;;;;;;4.25;3.50;;;;;17.53;59.47;101552.13;5115061;27;45506;-94
2022/06/28 03:19:47;;;;;;;;;3.50;3.25;;;;;17.36;59.46;101510.16;5117347;27;45385;-96
2022/06/28 03:22:12;;;;;;;;;4.50;3.50;;;;;17.43;59.25;101523.56;5117191;27;45694;-96
2022/06/28 03:24:38;;;;;;;;;4.00;4.00;;;;;17.36;59.71;101507.50;5110216;27;45536;-96
2022/06/28 03:27:03;;;;;;;;;3.75;3.25;;;;;17.45;59.67;101531.59;5098758;27;45485;-96
2022/06/28 03:29:29;;;;;;;;;5.50;3.75;;;;;17.27;59.61;101498.47;5132544;27;45144;-95
2022/06/28 03:31:54;;;;;;;;;4.50;3.50;;;;;17.44;59.61;101544.00;5117643;27;45345;-95
2022/06/28 03:34:19;;;;;;;;;2.75;2.50;;;;;17.35;60.10;101530.53;5123630;27;45591;-96
2022/06/28 03:36:46;;;;;;;;;2.50;2.25;;;;;17.29;60.47;101535.72;5121382;27;45562;-93
2022/06/28 03:39:12;;;;;;;;;4.25;4.25;;;;;17.09;59.90;101508.72;5117527;27;45260;-93
2022/06/28 03:41:38;;;;;;;;;2.75;2.25;;;;;16.83;60.24;101481.66;5116270;27;45398;-93
2022/06/28 03:44:03;;;;;;;;;3.00;3.00;;;;;16.98;60.32;101529.75;5116561;27;45300;-95
2022/06/28 03:46:29;;;;;;;;;2.00;2.00;;;;;16.91;60.83;101519.91;5115295;27;45065;-93
2022/06/28 03:48:54;;;;;;;;;3.50;2.75;;;;;16.89;60.92;101532.22;5116459;27;45027;-96
2022/06/28 03:51:19;;;;;;;;;3.00;3.00;;;;;16.80;61.10;101516.13;5127294;27;45312;-96
2022/06/28 03:53:44;;;;;;;;;2.00;2.00;;;;;16.76;60.92;101512.50;5124294;27;45331;-95
2022/06/28 03:56:10;;;;;;;;;2.00;2.00;;;;;16.95;60.77;101535.03;5135975;27;45021;-96
2022/06/28 03:58:35;;;;;;;;;2.00;2.00;;;;;16.85;60.96;101529.50;5109456;27;45126;-91
2022/06/28 04:01:01;;;;;;;;;3.00;2.25;;;;;16.64;61.50;101487.41;5125775;27;44946;-95
2022/06/28 04:03:26;;;;;;;;;2.25;2.25;;;;;16.91;61.43;101551.75;5125436;27;45619;-94
2022/06/28 04:05:52;;;;;;;;;2.25;2.25;;;;;16.76;60.90;101523.13;5108267;27;46895;-92
2022/06/28 04:08:17;;;;;;;;;4.00;3.25;;;;;16.86;60.99;101539.25;5114613;27;45498;-96
2022/06/28 04:10:43;;;;;;;;;4.00;3.50;;;;;16.76;60.99;101515.16;5101223;27;45102;-89
2022/06/28 04:13:08;;;;;;;;;4.00;3.00;;;;;16.91;61.23;101546.44;5109706;27;45158;-96
2022/06/28 04:15:35;;;;;;;;;2.67;2.67;;;;;16.86;61.32;101539.25;5080665;27;48296;-93
2022/06/28 04:18:01;;;;;;;;;4.00;4.00;;;;;16.68;61.73;101514.03;5089236;27;45715;-88
2022/06/28 04:20:26;;;;;;;;;3.50;3.50;;;;;16.78;61.94;101531.09;5073174;28;45829;-88
2022/06/28 04:22:51;;;;;;;;;4.00;3.00;;;;;16.76;61.67;101532.84;5078655;27;46805;-85
2022/06/28 04:25:17;;;;;;;;;3.75;3.50;;;;;16.85;61.82;101550.75;5099357;27;45477;-87
2022/06/28 04:27:42;;;;;;;;;3.25;3.00;;;;;16.82;61.87;101551.56;5084797;27;45418;-88
2022/06/28 04:30:08;;;;;;;;;2.25;2.00;;;;;16.92;61.94;101564.16;5078951;27;45421;-87
2022/06/28 04:32:34;;;;;;;;;3.75;3.25;;;;;16.63;62.28;101517.47;5088713;27;46348;-84
2022/06/28 04:34:59;;;;;;;;;3.25;3.25;;;;;16.74;62.10;101538.09;5075099;27;45593;-88
2022/06/28 04:37:24;;;;;;;;;3.00;3.00;;;;;16.90;62.49;101568.56;5080120;27;45284;-88
2022/06/28 04:39:50;;;;;;;;;3.75;3.75;;;;;16.79;62.44;101547.94;5090664;27;45473;-87
2022/06/28 04:42:15;;;;;;;;;3.00;2.25;;;;;16.83;62.16;101552.44;5098327;27;46223;-87
2022/06/28 04:44:42;;;;;;;;;4.00;4.00;;;;;16.97;62.02;101573.13;5080449;27;45596;-87
2022/06/28 04:47:08;;;;;;;;;4.00;3.00;;;;;17.00;62.31;101574.97;5077897;28;45500;-84
2022/06/28 04:49:33;;;;;;;;;2.75;2.75;;;;;17.01;62.33;101580.31;5081478;27;45456;-86
2022/06/28 04:51:59;;;;;;;;;4.00;3.75;;;;;16.83;62.49;101531.22;5098655;27;46586;-91
2022/06/28 04:54:24;;;;;;;;;5.25;5.00;;;;;16.86;62.50;101532.19;5098864;27;45656;-82
2022/06/28 04:56:49;;;;;;;;;4.00;3.75;;;;;16.95;62.27;101539.44;5090322;27;45365;-84
2022/06/28 04:59:15;;;;;;;;;5.00;5.00;;;;;16.87;62.64;101526.00;5112425;27;44917;-86
2022/06/28 05:01:41;;;;;;;;;4.75;4.50;;;;;17.04;62.65;101552.91;5113719;27;45696;-94
2022/06/28 05:04:07;;;;;;;;;3.50;3.25;;;;;17.07;62.63;101552.97;5114165;27;45306;-95
2022/06/28 05:06:32;;;;;;;;;3.25;3.25;;;;;17.07;62.36;101541.47;5129254;27;45068;-87
2022/06/28 05:08:58;;;;;;;;;3.25;3.25;;;;;17.28;63.07;101573.75;5107003;27;48002;-92
2022/06/28 05:11:24;;;;;;;;;4.75;3.25;;;;;17.37;61.91;101576.63;5112096;27;46075;-93
2022/06/28 05:13:50;;;;;;;;;4.00;4.00;;;;;17.33;62.32;101571.22;5106069;27;45973;-93
2022/06/28 05:16:15;;;;;;;;;4.00;3.00;;;;;17.48;62.66;101583.03;5098260;27;45336;-81
2022/06/28 05:18:41;;;;;;;;;4.00;2.75;;;;;17.41;62.16;101551.00;5116956;27;45226;-83
2022/06/28 05:21:06;;;;;;;;;3.25;2.50;;;;;17.60;61.58;101576.19;5130951;27;45713;-92
2022/06/28 05:23:33;;;;;;;;;3.00;3.00;;;;;17.35;61.72;101522.56;5108113;27;45285;-87
2022/06/28 05:25:58;;;;;;;;;5.25;4.75;;;;;17.69;60.83;101566.63;5123205;27;45076;-93
2022/06/28 05:28:23;;;;;;;;;3.75;3.25;;;;;17.81;61.39;101578.38;5129092;27;44932;-93
2022/06/28 05:30:49;;;;;;;;;3.00;3.00;;;;;17.73;60.85;101544.59;5121713;27;45340;-87
2022/06/28 05:33:15;;;;;;;;;3.25;2.75;;;;;17.86;61.25;101564.28;5117090;27;44987;-90
2022/06/28 05:35:40;;;;;;;;;2.75;2.50;;;;;18.00;61.78;101578.72;5123721;27;45118;-90
2022/06/28 05:38:06;;;;;;;;;2.00;2.00;;;;;17.94;61.35;101554.69;5122919;27;45247;-89
2022/06/28 05:40:31;;;;;;;;;0.50;0.50;;;;;18.00;60.77;101546.81;5105426;27;45433;-89
2022/06/28 05:42:56;;;;;;;;;1.75;1.75;;;;;18.11;60.54;101556.75;5099953;27;44849;-80
2022/06/28 05:45:22;;;;;;;;;2.75;2.50;;;;;18.04;60.30;101537.13;5103259;27;45470;-90
2022/06/28 05:47:47;;;;;;;;;0.33;0.33;;;;;17.93;59.95;101502.38;5098926;27;48226;-88
2022/06/28 05:50:12;;;;;;;;;2.00;1.25;;;;;18.21;60.08;101542.72;5101193;27;47729;-81
2022/06/28 05:52:38;;;;;;;;;2.00;2.00;;;;;18.39;60.29;101564.31;5109080;27;45048;-90
2022/06/28 05:55:04;;;;;;;;;2.75;0.75;;;;;18.25;58.17;101533.91;5111441;27;45377;-84
2022/06/28 05:57:29;;;;;;;;;0.75;0.75;;;;;18.30;58.03;101519.81;5100063;27;45564;-80
2022/06/28 05:59:55;;;;;;;;;0.75;0.75;;;;;18.47;57.39;101540.44;5101714;27;45595;-81
2022/06/28 06:02:20;;;;;;;;;0.00;0.00;;;;;18.47;57.41;101530.72;5097645;27;45457;-84
2022/06/28 06:04:45;;;;;;;;;0.75;0.75;;;;;18.41;57.11;101506.66;5120255;27;45358;-83
2022/06/28 06:07:11;;;;;;;;;0.75;0.75;;;;;18.64;57.82;101541.59;5096358;27;45146;-83
2022/06/28 06:09:36;;;;;;;;;0.75;0.75;;;;;18.68;56.98;101539.88;5090504;27;47496;-89
2022/06/28 06:12:04;;;;;;;;;0.75;0.75;;;;;18.72;57.50;101529.34;5094071;27;45242;-89
2022/06/28 06:14:29;;;;;;;;;1.00;1.00;;;;;18.88;57.59;101554.41;5102901;27;45129;-89
2022/06/28 06:16:54;;;;;;;;;1.00;1.00;;;;;18.74;57.30;101524.03;5110160;27;45119;-89
2022/06/28 06:19:20;;;;;;;;;1.25;0.75;;;;;18.85;57.38;101532.16;5111578;27;45562;-85
2022/06/28 06:21:45;;;;;;;;;1.50;0.75;;;;;18.94;57.10;101535.84;5117394;27;45220;-86
2022/06/28 06:24:11;;;;;;;;;1.00;1.00;;;;;18.91;56.35;101525.13;5108965;27;45161;-90
2022/06/28 06:26:36;;;;;;;;;2.00;1.50;;;;;19.02;56.20;101527.94;5086961;27;45436;-91
2022/06/28 06:29:02;;;;;;;;;2.50;2.00;;;;;19.11;55.78;101538.69;5099781;27;46812;-89
2022/06/28 06:31:28;;;;;;;;;0.75;0.75;;;;;19.19;56.03;101547.69;5106545;27;45393;-91
2022/06/28 06:33:54;;;;;;;;;3.00;3.00;;;;;19.17;56.11;101533.47;5098150;27;45400;-90
2022/06/28 06:36:19;;;;;;;;;4.00;3.75;;;;;19.20;56.64;101529.91;5100153;27;45483;-90
2022/06/28 06:38:44;;;;;;;;;2.00;2.00;;;;;19.35;56.61;101538.09;5108691;27;45669;-90
2022/06/28 06:41:10;;;;;;;;;1.00;1.00;;;;;19.40;56.18;101547.03;5112314;27;45249;-91
2022/06/28 06:43:35;;;;;;;;;1.00;1.00;;;;;19.36;55.87;101528.31;5116497;27;45157;-89
2022/06/28 06:46:01;;;;;;;;;2.25;2.00;;;;;19.49;55.50;101538.25;5123966;27;44999;-87
2022/06/28 06:48:26;;;;;;;;;3.00;3.00;;;;;19.34;55.71;101505.22;5096154;27;46472;-90
2022/06/28 06:50:51;;;;;;;;;2.00;1.25;;;;;19.41;55.81;101502.59;5119158;27;44968;-84
2022/06/28 06:53:19;;;;;;;;;2.75;2.75;;;;;19.59;55.47;101529.47;5119344;27;44988;-92
2022/06/28 06:55:46;;;;;;;;;2.00;2.00;;;;;19.64;55.81;101529.56;5121317;27;45178;-89
2022/06/28 06:58:12;;;;;;;;;2.00;2.00;;;;;19.56;55.83;101500.13;5117758;27;45450;-89
2022/06/28 07:00:37;;;;;;;;;4.75;3.25;;;;;19.53;55.66;101500.97;5126571;27;45247;-89
2022/06/28 07:03:03;;;;;;;;;3.00;2.00;;;;;19.55;55.76;101492.97;5121031;27;45189;-82
2022/06/28 07:05:29;;;;;;;;;1.25;1.25;;;;;19.77;55.58;101527.03;5107983;27;45297;-88
2022/06/28 07:07:55;;;;;;;;;1.00;1.00;;;;;19.64;55.87;101497.53;5110318;27;46615;-91
2022/06/28 07:10:20;;;;;;;;;1.00;1.00;;;;;19.83;55.38;101521.72;5118613;27;45081;-88
2022/06/28 07:12:46;;;;;;;;;1.75;1.75;;;;;19.92;55.47;101525.38;5121408;27;45461;-85
2022/06/28 07:15:11;;;;;;;;;2.00;2.00;;;;;19.88;55.98;101513.78;5103501;27;45677;-85
2022/06/28 07:17:36;;;;;;;;;2.00;2.00;;;;;19.96;55.58;101525.41;5092792;27;45391;-87
2022/06/28 07:20:02;;;;;;;;;2.00;2.00;;;;;20.02;55.01;101519.22;5093654;27;45511;-87
2022/06/28 07:22:28;;;;;;;;;2.00;2.00;;;;;19.90;55.14;101492.44;5093973;27;45513;-88
2022/06/28 07:24:53;;;;;;;;;2.00;2.00;;;;;19.87;55.41;101482.66;5094738;27;45530;-88
2022/06/28 07:27:19;;;;;;;;;2.75;2.25;;;;;20.04;55.45;101504.13;5094088;27;46028;-87
2022/06/28 07:29:45;;;;;;;;;2.00;2.00;;;;;19.93;55.80;101480.03;5092916;27;45426;-89
2022/06/28 07:32:10;;;;;;;;;1.50;1.25;;;;;20.06;55.00;101492.59;5094227;27;45521;-86
2022/06/28 07:34:36;;;;;;;;;2.00;2.00;;;;;20.16;55.00;101512.22;5075794;27;45382;-86
2022/06/28 07:37:01;;;;;;;;;2.75;2.75;;;;;20.09;55.06;101489.03;5093099;27;46481;-86
2022/06/28 07:39:26;;;;;;;;;2.50;2.00;;;;;20.13;55.66;101485.50;5079611;27;45351;-87
2022/06/28 07:41:53;;;;;;;;;3.00;3.00;;;;;20.07;54.99;101473.00;5075738;27;45549;-86
2022/06/28 07:44:19;;;;;;;;;2.00;2.00;;;;;20.08;55.57;101457.91;5094687;27;45434;-86
2022/06/28 07:46:44;;;;;;;;;2.00;2.00;;;;;20.29;54.48;101490.06;5078261;27;48502;-86
2022/06/28 07:49:10;;;;;;;;;1.00;1.00;;;;;20.22;54.67;101472.22;5093943;27;45365;-86
2022/06/28 07:54:19;;;;;;;;;2.25;2.25;;;;;20.38;54.61;101489.22;5094216;27;45499;-86
2022/06/28 07:56:44;;;;;;;;;2.75;2.75;;;;;20.32;55.07;101466.06;5095310;27;46476;-88
2022/06/28 07:59:10;;;;;;;;;3.00;2.50;;;;;20.33;54.53;101459.84;5093606;27;45899;-88
2022/06/28 08:01:35;;;;;;;;;3.00;2.67;;;;;20.34;54.01;101450.97;5102507;27;45723;-88
2022/06/28 08:04:00;;;;;;;;;3.75;2.00;;;;;20.40;54.62;101455.44;5111067;27;49406;-86
2022/06/28 08:06:26;;;;;;;;;2.00;2.00;;;;;20.36;54.19;101448.28;5130060;27;45822;-85
2022/06/28 08:08:51;;;;;;;;;3.25;3.00;;;;;20.32;53.93;101433.13;5132030;27;44999;-87
2022/06/28 08:11:17;;;;;;;;;2.25;2.25;;;;;20.32;54.67;101433.13;5131393;27;45055;-87
2022/06/28 08:13:42;;;;;;;;;2.00;2.00;;;;;20.59;54.62;101461.78;5135057;27;45106;-88
2022/06/28 08:16:08;;;;;;;;;3.25;3.00;;;;;20.52;54.28;101446.63;5135060;27;45400;-86
2022/06/28 08:18:33;;;;;;;;;3.00;3.00;;;;;20.34;54.24;101405.56;5130791;27;45125;-87
2022/06/28 08:20:58;;;;;;;;;2.50;2.00;;;;;20.58;54.27;101431.50;5113083;27;45086;-85
2022/06/28 08:23:24;;;;;;;;;2.25;2.25;;;;;20.67;54.55;101430.66;5135057;27;44934;-89
2022/06/28 08:25:49;;;;;;;;;3.00;3.00;;;;;20.54;54.66;101413.72;5128195;27;45384;-88
2022/06/28 08:28:15;;;;;;;;;2.00;2.00;;;;;20.76;53.97;101438.72;5134867;27;44953;-88
2022/06/28 08:30:41;;;;;;;;;2.00;2.00;;;;;20.91;53.99;101448.56;5117012;27;45132;-87
2022/06/28 08:33:07;;;;;;;;;2.00;2.00;;;;;20.83;53.11;101423.59;5114769;27;44950;-86
2022/06/28 08:35:34;;;;;;;;;3.00;2.00;;;;;20.98;52.79;101441.47;5129350;27;45870;-88
2022/06/28 08:37:59;;;;;;;;;2.00;2.00;;;;;20.84;52.92;101409.38;5135034;27;45488;-88
2022/06/28 08:40:27;;;;;;;;;1.75;1.00;;;;;20.91;52.12;101416.50;5116144;27;45075;-88
2022/06/28 08:42:54;;;;;;;;;1.25;1.25;;;;;20.92;52.69;101407.59;5128916;27;45276;-87
2022/06/28 08:45:20;;;;;;;;;3.00;2.75;;;;;20.78;52.68;101366.56;5127088;27;45289;-79
2022/06/28 08:47:49;;;;;;;;;2.50;2.50;;;;;21.02;51.70;101411.19;5122992;27;45345;-88
2022/06/28 08:50:22;;;;;;;;;2.25;2.00;;;;;21.00;51.08;101388.91;5134909;27;44929;-84
2022/06/28 08:52:49;;;;;;;;;3.00;2.50;;;;;21.20;51.77;101421.03;5118735;27;45024;-80
2022/06/28 08:55:15;;;;;;;;;1.75;1.75;;;;;21.28;50.53;101416.56;5107644;27;46147;-82
2022/06/28 08:57:42;;;;;;;;;2.25;2.25;;;;;21.35;50.64;101421.97;5124140;27;45419;-85
2022/06/28 09:00:09;;;;;;;;;1.25;1.00;;;;;21.24;50.22;101380.94;5103805;27;45343;-90
2022/06/28 09:02:35;;;;;;;;;1.25;1.25;;;;;21.33;49.82;101382.78;5116909;27;45281;-96
2022/06/28 09:05:02;;;;;;;;;1.00;1.00;;;;;21.47;49.44;101399.69;5124042;27;45401;-94
2022/06/28 09:07:50;;;;;;;;;1.00;1.00;;;;;21.32;49.19;101368.47;5122376;27;45683;-87
2022/06/28 09:10:16;;;;;;;;;1.00;1.00;;;;;21.37;48.51;101366.69;5095149;27;45468;-87
2022/06/28 09:12:41;;;;;;;;;1.25;1.25;;;;;21.44;48.75;101356.91;5113603;27;45306;-86
2022/06/28 09:15:08;;;;;;;;;1.00;1.00;;;;;21.44;47.48;101356.91;5115572;27;45555;-85
2022/06/28 09:17:33;;;;;;;;;1.00;1.00;;;;;21.58;48.12;101376.53;5123178;27;45308;-89
2022/06/28 09:20:00;;;;;;;;;2.75;1.00;;;;;21.72;48.34;101379.16;5117251;27;45435;-89
2022/06/28 09:22:34;;;;;;;;;1.00;1.00;;;;;21.79;47.57;101380.06;5116976;27;45519;-86
2022/06/28 09:25:02;;;;;;;;;2.00;1.00;;;;;21.80;46.71;101363.09;5116875;27;45516;-87
2022/06/28 09:27:30;;;;;;;;;1.50;1.50;;;;;21.53;46.72;101313.22;5098437;27;46003;-94
2022/06/28 09:29:56;;;;;;;;;1.25;1.00;;;;;21.82;46.38;101363.97;5098942;27;45379;-94
2022/06/28 09:32:27;;;;;;;;;2.00;1.25;;;;;21.76;47.44;101355.97;5116971;27;45481;-92
2022/06/28 09:34:55;;;;;;;;;1.75;1.25;;;;;21.78;48.14;101344.38;5116780;27;45618;-91
2022/06/28 09:37:51;;;;;;;;;1.75;1.75;;;;;21.83;47.37;101325.66;5116444;27;45270;-94
2022/06/28 09:40:36;;;;;;;;;1.00;1.00;;;;;21.81;46.38;101306.00;5094812;27;45533;-94
2022/06/28 09:43:06;;;;;;;;;1.00;1.00;;;;;22.03;45.95;101338.97;5115787;27;45360;-93
2022/06/28 09:45:32;;;;;;;;;3.00;2.00;;;;;22.11;45.87;101340.75;5096276;27;46448;-92
2022/06/28 09:47:58;;;;;;;;;1.00;1.00;;;;;22.09;45.90;101326.44;5096169;27;46002;-90
2022/06/28 09:50:23;;;;;;;;;1.00;1.00;;;;;22.25;45.49;101351.41;5099677;27;45811;-91
2022/06/28 09:52:50;;;;;;;;;1.25;1.00;;;;;22.19;44.70;101302.34;5123821;27;45087;-88
2022/06/28 09:55:16;;;;;;;;;1.00;1.00;;;;;22.50;44.95;101349.53;5133620;27;45626;-91
2022/06/28 09:57:47;;;;;;;;;1.00;0.25;;;;;22.62;44.62;101345.91;5112551;27;45184;-91
2022/06/28 10:00:15;;;;;;;;;1.50;1.00;;;;;22.58;45.05;101323.59;5113332;27;45063;-90
2022/06/28 10:02:42;;;;;;;;;1.00;1.00;;;;;22.71;44.31;101334.22;5111817;27;45100;-90
2022/06/28 10:05:13;;;;;;;;;1.00;1.00;;;;;22.89;45.13;101342.19;5102804;27;45659;-92
2022/06/28 10:07:39;;;;;;;;;2.00;2.00;;;;;22.89;44.12;101324.31;5073227;28;45520;-92
2022/06/28 10:10:08;;;;;;;;;3.00;1.75;;;;;22.96;43.37;101326.97;5097494;27;45376;-79
2022/06/28 10:15:21;;;;;;;;;2.00;2.00;;;;;22.78;41.75;101293.97;5094881;27;45474;-88
2022/06/28 10:17:59;;;;;;;;;1.00;1.00;;;;;22.82;41.82;101287.72;5099091;27;45410;-90
2022/06/28 10:20:28;;;;;;;;;3.00;2.50;;;;;22.82;41.41;101287.72;5113182;27;44978;-91
2022/06/28 10:23:24;;;;;;;;;1.50;1.00;;;;;23.05;42.13;101319.72;5097909;27;45587;-88
2022/06/28 10:26:18;;;;;;;;;1.25;1.00;;;;;23.14;41.85;101316.09;5097652;27;45522;-92
2022/06/28 10:29:03;;;;;;;;;1.00;1.00;;;;;23.21;40.84;101315.16;5094297;27;45408;-91
2022/06/28 10:31:30;;;;;;;;;1.00;0.50;;;;;23.25;40.78;101307.94;5077288;28;45454;-91
2022/06/28 10:33:57;;;;;;;;;2.00;2.00;;;;;23.25;42.08;101298.13;5075603;27;45641;-87
2022/06/28 10:36:31;;;;;;;;;1.00;1.00;;;;;23.10;41.42;101272.34;5075021;27;46619;-85
2022/06/28 10:39:06;;;;;;;;;2.00;2.00;;;;;23.35;40.97;101302.50;5077503;28;45727;-90
2022/06/28 10:41:45;;;;;;;;;1.00;1.00;;;;;23.41;40.59;101298.88;5077475;28;45483;-90
2022/06/28 10:44:16;;;;;;;;;1.75;1.00;;;;;23.46;41.47;101291.69;5077488;27;45307;-90
2022/06/28 10:47:09;;;;;;;;;1.50;1.50;;;;;23.51;41.25;101291.63;5059059;28;47104;-89
2022/06/28 10:49:51;;;;;;;;;2.00;1.50;;;;;23.63;40.01;101289.72;5076544;28;45612;-89
2022/06/28 10:52:18;;;;;;;;;1.00;1.00;;;;;23.60;40.08;101270.06;5077391;27;45468;-88
2022/06/28 10:54:54;;;;;;;;;3.00;2.75;;;;;23.81;40.63;101277.03;5078578;27;45277;-90
2022/06/28 10:57:20;;;;;;;;;1.00;1.00;;;;;23.84;40.53;101264.47;5076651;28;45476;-88
2022/06/28 10:59:48;;;;;;;;;1.75;1.00;;;;;23.97;40.04;101272.34;5077708;27;45364;-91
2022/06/28 11:02:14;;;;;;;;;1.25;1.25;;;;;23.98;40.07;101255.34;5059244;28;44726;-90
2022/06/28 11:04:39;;;;;;;;;1.75;1.75;;;;;24.28;40.43;101283.59;5064425;27;45475;-88
2022/06/28 11:07:06;;;;;;;;;2.00;1.00;;;;;24.41;39.64;101272.69;5079046;27;47427;-90
2022/06/28 11:09:43;;;;;;;;;2.00;1.50;;;;;24.55;40.41;101275.19;5097050;27;45645;-90
2022/06/28 11:12:15;;;;;;;;;1.00;1.00;;;;;24.74;39.19;101274.91;5109312;27;45967;-85
2022/06/28 11:14:45;;;;;;;;;2.75;2.50;;;;;24.92;38.15;101264.72;5089653;27;45479;-89
2022/06/28 11:17:19;;;;;;;;;1.75;1.75;;;;;24.80;37.32;101234.50;5099327;27;48119;-93
2022/06/28 11:19:53;;;;;;;;;1.00;1.00;;;;;24.83;38.14;101246.09;5102668;27;45390;-89
2022/06/28 11:22:33;;;;;;;;;1.00;1.00;;;;;24.90;37.02;101245.06;5115621;27;45249;-92
2022/06/28 11:25:01;;;;;;;;;1.00;1.00;;;;;24.89;38.01;101254.03;5096372;27;45335;-86
2022/06/28 11:27:27;;;;;;;;;1.00;1.00;;;;;24.90;36.78;101263.88;5086704;27;47238;-89
2022/06/28 11:29:55;;;;;;;;;1.00;1.00;;;;;24.93;37.68;101266.53;5099058;27;45705;-89
2022/06/28 11:32:33;;;;;;;;;2.00;2.00;;;;;24.87;37.65;101228.97;5117735;27;45402;-88
2022/06/28 11:35:04;;;;;;;;;1.25;1.00;;;;;25.11;38.01;101259.09;5118093;27;45286;-90